sensor_id;sensor_type;location;lat;lon;timestamp;pressure;altitude;pressure_sealevel;temperature;humidity
8160;BME280;27404;52.398;9.646;2022-08-01T00:00:10;100631.09;;;17.84;100.00
8160;BME280;27404;52.398;9.646;2022-08-01T00:02:38;100634.41;;;17.86;100.00
8160;BME280;27404;52.398;9.646;2022-08-01T00:05:05;100630.78;;;17.91;100.00
8160;BME280;27404;52.398;9.646;2022-08-01T00:07:31;100634.94;;;17.88;100.00
8160;BME280;27404;52.398;9.646;2022-08-01T00:09:57;100631.03;;;17.89;100.00
8160;BME280;27404;52.398;9.646;2022-08-01T00:12:23;100634.09;;;17.93;100.00
8160;BME280;27404;52.398;9.646;2022-08-01T00:14:48;100630.78;;;17.91;100.00
8160;BME280;27404;52.398;9.646;2022-08-01T00:17:14;100629.38;;;17.94;100.00
8160;BME280;27404;52.398;9.646;2022-08-01T00:19:39;100630.47;;;17.92;100.00
8160;BME280;27404;52.398;9.646;2022-08-01T00:22:05;100635.19;;;17.92;100.00
8160;BME280;27404;52.398;9.646;2022-08-01T00:24:30;100624.13;;;17.92;100.00
8160;BME280;27404;52.398;9.646;2022-08-01T00:26:56;100623.28;;;17.91;100.00
8160;BME280;27404;52.398;9.646;2022-08-01T00:29:21;100618.59;;;17.92;100.00
8160;BME280;27404;52.398;9.646;2022-08-01T00:31:47;100625.81;;;17.88;100.00
8160;BME280;27404;52.398;9.646;2022-08-01T00:34:12;100630.22;;;17.89;100.00
8160;BME280;27404;52.398;9.646;2022-08-01T00:36:38;100625.28;;;17.86;100.00
8160;BME280;27404;52.398;9.646;2022-08-01T00:39:03;100629.13;;;17.90;100.00
8160;BME280;27404;52.398;9.646;2022-08-01T00:41:29;100624.72;;;17.84;100.00
8160;BME280;27404;52.398;9.646;2022-08-01T00:43:54;100627.50;;;17.84;100.00
8160;BME280;27404;52.398;9.646;2022-08-01T00:46:20;100618.88;;;17.90;100.00
8160;BME280;27404;52.398;9.646;2022-08-01T00:48:45;100629.69;;;17.87;100.00
8160;BME280;27404;52.398;9.646;2022-08-01T00:51:11;100620.81;;;17.90;100.00
8160;BME280;27404;52.398;9.646;2022-08-01T00:53:38;100618.88;;;17.90;100.00
8160;BME280;27404;52.398;9.646;2022-08-01T00:56:04;100619.16;;;17.89;100.00
8160;BME280;27404;52.398;9.646;2022-08-01T00:58:30;100617.75;;;17.91;100.00
8160;BME280;27404;52.398;9.646;2022-08-01T01:00:58;100616.38;;;17.94;100.00
8160;BME280;27404;52.398;9.646;2022-08-01T01:03:24;100620.84;;;17.85;100.00
8160;BME280;27404;52.398;9.646;2022-08-01T01:06:05;100604.53;;;17.88;100.00
8160;BME280;27404;52.398;9.646;2022-08-01T01:08:37;100610.34;;;17.87;100.00
8160;BME280;27404;52.398;9.646;2022-08-01T01:11:11;100611.69;;;17.89;100.00
8160;BME280;27404;52.398;9.646;2022-08-01T01:13:42;100603.44;;;17.84;100.00
8160;BME280;27404;52.398;9.646;2022-08-01T01:16:11;100610.88;;;17.89;100.00
8160;BME280;27404;52.398;9.646;2022-08-01T01:18:56;100604.81;;;17.87;100.00
8160;BME280;27404;52.398;9.646;2022-08-01T01:27:39;100618.41;;;17.78;100.00
8160;BME280;27404;52.398;9.646;2022-08-01T01:30:07;100619.50;;;17.82;100.00
8160;BME280;27404;52.398;9.646;2022-08-01T01:32:39;100626.41;;;17.80;100.00
8160;BME280;27404;52.398;9.646;2022-08-01T01:35:12;100625.88;;;17.77;100.00
8160;BME280;27404;52.398;9.646;2022-08-01T01:37:40;100627.28;;;17.75;100.00
8160;BME280;27404;52.398;9.646;2022-08-01T01:40:09;100626.44;;;17.74;100.00
8160;BME280;27404;52.398;9.646;2022-08-01T01:42:36;100623.41;;;17.76;100.00
8160;BME280;27404;52.398;9.646;2022-08-01T01:45:04;100626.97;;;17.76;100.00
8160;BME280;27404;52.398;9.646;2022-08-01T01:47:31;100637.75;;;17.78;100.00
8160;BME280;27404;52.398;9.646;2022-08-01T01:49:59;100634.75;;;17.69;100.00
8160;BME280;27404;52.398;9.646;2022-08-01T01:52:26;100635.84;;;17.73;100.00
8160;BME280;27404;52.398;9.646;2022-08-01T01:54:54;100633.38;;;17.72;100.00
8160;BME280;27404;52.398;9.646;2022-08-01T01:57:21;100634.75;;;17.69;100.00
8160;BME280;27404;52.398;9.646;2022-08-01T01:59:49;100629.22;;;17.69;100.00
8160;BME280;27404;52.398;9.646;2022-08-01T02:02:15;100632.84;;;17.65;100.00
8160;BME280;27404;52.398;9.646;2022-08-01T02:04:42;100636.97;;;17.67;100.00
8160;BME280;27404;52.398;9.646;2022-08-01T02:07:11;100635.59;;;17.70;100.00
8160;BME280;27404;52.398;9.646;2022-08-01T02:09:37;100640.03;;;17.66;100.00
8160;BME280;27404;52.398;9.646;2022-08-01T02:12:05;100638.66;;;17.63;100.00
8160;BME280;27404;52.398;9.646;2022-08-01T02:14:33;100629.78;;;17.66;100.00
8160;BME280;27404;52.398;9.646;2022-08-01T02:17:00;100631.78;;;17.55;100.00
8160;BME280;27404;52.398;9.646;2022-08-01T02:19:29;100635.34;;;17.56;100.00
8160;BME280;27404;52.398;9.646;2022-08-01T02:22:05;100640.94;;;17.51;100.00
8160;BME280;27404;52.398;9.646;2022-08-01T02:27:15;100637.63;;;17.49;100.00
8160;BME280;27404;52.398;9.646;2022-08-01T02:29:49;100643.16;;;17.49;100.00
8160;BME280;27404;52.398;9.646;2022-08-01T02:32:24;100643.97;;;17.44;100.00
8160;BME280;27404;52.398;9.646;2022-08-01T02:34:51;100642.63;;;17.41;100.00
8160;BME280;27404;52.398;9.646;2022-08-01T02:37:19;100648.16;;;17.41;100.00
8160;BME280;27404;52.398;9.646;2022-08-01T02:39:47;100655.88;;;17.39;100.00
8160;BME280;27404;52.398;9.646;2022-08-01T02:42:15;100656.69;;;17.40;100.00
8160;BME280;27404;52.398;9.646;2022-08-01T02:44:44;100648.97;;;17.42;100.00
8160;BME280;27404;52.398;9.646;2022-08-01T02:47:11;100653.13;;;17.39;100.00
8160;BME280;27404;52.398;9.646;2022-08-01T02:49:44;100648.97;;;17.37;100.00
8160;BME280;27404;52.398;9.646;2022-08-01T02:52:13;100662.22;;;17.40;100.00
8160;BME280;27404;52.398;9.646;2022-08-01T02:54:40;100653.94;;;17.35;100.00
8160;BME280;27404;52.398;9.646;2022-08-01T02:57:07;100658.66;;;17.34;100.00
8160;BME280;27404;52.398;9.646;2022-08-01T02:59:36;100652.84;;;17.41;100.00
8160;BME280;27404;52.398;9.646;2022-08-01T03:02:04;100656.69;;;17.40;100.00
8160;BME280;27404;52.398;9.646;2022-08-01T03:04:33;100659.75;;;17.38;100.00
8160;BME280;27404;52.398;9.646;2022-08-01T03:07:00;100658.38;;;17.36;100.00
8160;BME280;27404;52.398;9.646;2022-08-01T03:09:27;100658.38;;;17.36;100.00
8160;BME280;27404;52.398;9.646;2022-08-01T03:11:59;100662.53;;;17.38;100.00
8160;BME280;27404;52.398;9.646;2022-08-01T03:14:26;100664.44;;;17.43;100.00
8160;BME280;27404;52.398;9.646;2022-08-01T03:16:53;100668.28;;;17.47;100.00
8160;BME280;27404;52.398;9.646;2022-08-01T03:19:23;100664.97;;;17.45;100.00
8160;BME280;27404;52.398;9.646;2022-08-01T03:21:50;100665.28;;;17.43;100.00
8160;BME280;27404;52.398;9.646;2022-08-01T03:24:16;100673.03;;;17.36;100.00
8160;BME280;27404;52.398;9.646;2022-08-01T03:26:44;100678.81;;;17.35;100.00
8160;BME280;27404;52.398;9.646;2022-08-01T03:29:17;100676.34;;;17.33;100.00
8160;BME280;27404;52.398;9.646;2022-08-01T03:31:46;100684.66;;;17.33;100.00
8160;BME280;27404;52.398;9.646;2022-08-01T03:34:13;100688.22;;;17.39;100.00
8160;BME280;27404;52.398;9.646;2022-08-01T03:36:46;100691.00;;;17.28;100.00
8160;BME280;27404;52.398;9.646;2022-08-01T03:39:12;100697.06;;;17.25;100.00
8160;BME280;27404;52.398;9.646;2022-08-01T03:41:41;100697.34;;;17.29;100.00
8160;BME280;27404;52.398;9.646;2022-08-01T03:44:14;100699.59;;;17.22;100.00
8160;BME280;27404;52.398;9.646;2022-08-01T03:46:45;100698.47;;;17.17;100.00
8160;BME280;27404;52.398;9.646;2022-08-01T03:49:17;100698.50;;;17.12;100.00
8160;BME280;27404;52.398;9.646;2022-08-01T03:51:45;100689.94;;;17.09;100.00
8160;BME280;27404;52.398;9.646;2022-08-01T03:54:14;100692.16;;;17.07;100.00
8160;BME280;27404;52.398;9.646;2022-08-01T03:56:42;100692.72;;;17.04;100.00
8160;BME280;27404;52.398;9.646;2022-08-01T03:59:08;100701.81;;;17.04;100.00
8160;BME280;27404;52.398;9.646;2022-08-01T04:01:34;100703.47;;;17.05;100.00
8160;BME280;27404;52.398;9.646;2022-08-01T04:04:01;100701.81;;;17.04;100.00
8160;BME280;27404;52.398;9.646;2022-08-01T04:06:30;100705.13;;;17.11;100.00
8160;BME280;27404;52.398;9.646;2022-08-01T04:08:55;100696.00;;;17.11;100.00
8160;BME280;27404;52.398;9.646;2022-08-01T04:11:23;100708.16;;;17.15;100.00
8160;BME280;27404;52.398;9.646;2022-08-01T04:13:49;100717.25;;;17.15;100.00
8160;BME280;27404;52.398;9.646;2022-08-01T04:16:14;100712.84;;;17.14;100.00
8160;BME280;27404;52.398;9.646;2022-08-01T04:18:39;100721.44;;;17.13;100.00
8160;BME280;27404;52.398;9.646;2022-08-01T04:21:05;100716.16;;;17.16;100.00
8160;BME280;27404;52.398;9.646;2022-08-01T04:23:31;100717.25;;;17.21;100.00
8160;BME280;27404;52.398;9.646;2022-08-01T04:25:59;100718.38;;;17.20;100.00
8160;BME280;27404;52.398;9.646;2022-08-01T04:28:30;100724.16;;;17.23;100.00
8160;BME280;27404;52.398;9.646;2022-08-01T04:30:57;100723.59;;;17.26;100.00
8160;BME280;27404;52.398;9.646;2022-08-01T04:33:25;100724.69;;;17.30;100.00
8160;BME280;27404;52.398;9.646;2022-08-01T04:35:54;100730.78;;;17.27;100.00
8160;BME280;27404;52.398;9.646;2022-08-01T04:38:25;100729.13;;;17.31;100.00
8160;BME280;27404;52.398;9.646;2022-08-01T04:40:52;100735.19;;;17.28;100.00
8160;BME280;27404;52.398;9.646;2022-08-01T04:43:19;100735.47;;;17.32;100.00
8160;BME280;27404;52.398;9.646;2022-08-01T04:45:46;100741.00;;;17.32;100.00
8160;BME280;27404;52.398;9.646;2022-08-01T04:48:13;100742.66;;;17.38;100.00
8160;BME280;27404;52.398;9.646;2022-08-01T04:50:41;100742.66;;;17.38;100.00
8160;BME280;27404;52.398;9.646;2022-08-01T04:53:15;100743.22;;;17.40;100.00
8160;BME280;27404;52.398;9.646;2022-08-01T04:55:45;100753.69;;;17.54;100.00
8160;BME280;27404;52.398;9.646;2022-08-01T04:58:15;100752.53;;;17.65;100.00
8160;BME280;27404;52.398;9.646;2022-08-01T05:00:41;100747.00;;;17.70;100.00
8160;BME280;27404;52.398;9.646;2022-08-01T05:03:06;100752.50;;;17.81;100.00
8160;BME280;27404;52.398;9.646;2022-08-01T05:05:32;100763.84;;;17.79;100.00
8160;BME280;27404;52.398;9.646;2022-08-01T05:07:58;100750.88;;;17.69;100.00
8160;BME280;27404;52.398;9.646;2022-08-01T05:10:23;100756.69;;;17.73;100.00
8160;BME280;27404;52.398;9.646;2022-08-01T05:12:48;100759.97;;;17.85;100.00
8160;BME280;27404;52.398;9.646;2022-08-01T05:15:14;100763.50;;;18.01;100.00
8160;BME280;27404;52.398;9.646;2022-08-01T05:17:39;100771.75;;;18.17;100.00
8160;BME280;27404;52.398;9.646;2022-08-01T05:20:07;100770.06;;;18.21;100.00
8160;BME280;27404;52.398;9.646;2022-08-01T05:22:33;100772.03;;;18.15;100.00
8160;BME280;27404;52.398;9.646;2022-08-01T05:24:58;100771.47;;;18.13;100.00
8160;BME280;27404;52.398;9.646;2022-08-01T05:27:25;100766.50;;;18.10;100.00
8160;BME280;27404;52.398;9.646;2022-08-01T05:29:50;100762.94;;;18.04;100.00
8160;BME280;27404;52.398;9.646;2022-08-01T05:32:16;100770.13;;;18.05;100.00
8160;BME280;27404;52.398;9.646;2022-08-01T05:34:41;100772.59;;;18.07;100.00
8160;BME280;27404;52.398;9.646;2022-08-01T05:37:07;100771.75;;;18.17;100.00
8160;BME280;27404;52.398;9.646;2022-08-01T05:39:32;100773.13;;;18.14;100.00
8160;BME280;27404;52.398;9.646;2022-08-01T05:41:58;100774.78;;;18.20;100.00
8160;BME280;27404;52.398;9.646;2022-08-01T05:44:24;100770.09;;;18.16;100.00
8160;BME280;27404;52.398;9.646;2022-08-01T05:46:50;100778.31;;;18.26;100.00
8160;BME280;27404;52.398;9.646;2022-08-01T05:49:16;100769.19;;;18.31;100.00
8160;BME280;27404;52.398;9.646;2022-08-01T05:51:42;100779.09;;;18.42;100.00
8160;BME280;27404;52.398;9.646;2022-08-01T05:54:07;100774.28;;;18.58;100.00
8160;BME280;27404;52.398;9.646;2022-08-01T05:56:33;100773.78;;;18.91;100.00
8160;BME280;27404;52.398;9.646;2022-08-01T05:58:58;100772.00;;;19.70;100.00
8160;BME280;27404;52.398;9.646;2022-08-01T06:01:24;100788.25;;;20.25;100.00
8160;BME280;27404;52.398;9.646;2022-08-01T06:03:49;100782.81;;;20.20;100.00
8160;BME280;27404;52.398;9.646;2022-08-01T06:06:14;100792.25;;;19.94;100.00
8160;BME280;27404;52.398;9.646;2022-08-01T06:08:41;100787.03;;;19.88;100.00
8160;BME280;27404;52.398;9.646;2022-08-01T06:11:06;100790.22;;;19.76;100.00
8160;BME280;27404;52.398;9.646;2022-08-01T06:13:32;100794.31;;;19.54;100.00
8160;BME280;27404;52.398;9.646;2022-08-01T06:15:57;100797.59;;;19.32;100.00
8160;BME280;27404;52.398;9.646;2022-08-01T06:18:23;100797.31;;;19.28;100.00
8160;BME280;27404;52.398;9.646;2022-08-01T06:20:49;100802.75;;;19.09;100.00
8160;BME280;27404;52.398;9.646;2022-08-01T06:23:14;100808.75;;;18.82;100.00
8160;BME280;27404;52.398;9.646;2022-08-01T06:25:42;100815.09;;;18.37;100.00
8160;BME280;27404;52.398;9.646;2022-08-01T06:28:07;100824.00;;;18.29;100.00
8160;BME280;27404;52.398;9.646;2022-08-01T06:30:33;100827.56;;;18.34;100.00
8160;BME280;27404;52.398;9.646;2022-08-01T06:32:58;100820.03;;;18.50;100.00
8160;BME280;27404;52.398;9.646;2022-08-01T06:35:25;100830.63;;;18.83;100.00
8160;BME280;27404;52.398;9.646;2022-08-01T06:37:51;100828.25;;;19.41;100.00
8160;BME280;27404;52.398;9.646;2022-08-01T06:40:16;100835.97;;;20.51;100.00
8160;BME280;27404;52.398;9.646;2022-08-01T06:42:43;100837.91;;;20.51;100.00
8160;BME280;27404;52.398;9.646;2022-08-01T06:45:12;100836.47;;;20.10;100.00
8160;BME280;27404;52.398;9.646;2022-08-01T06:47:38;100832.09;;;20.04;100.00
8160;BME280;27404;52.398;9.646;2022-08-01T06:50:06;100830.03;;;19.90;100.00
8160;BME280;27404;52.398;9.646;2022-08-01T06:52:32;100834.59;;;19.76;100.00
8160;BME280;27404;52.398;9.646;2022-08-01T06:54:58;100837.16;;;19.96;100.00
8160;BME280;27404;52.398;9.646;2022-08-01T06:57:23;100827.25;;;20.39;100.00
8160;BME280;27404;52.398;9.646;2022-08-01T06:59:49;100832.88;;;20.53;100.00
8160;BME280;27404;52.398;9.646;2022-08-01T07:02:14;100831.25;;;20.71;100.00
8160;BME280;27404;52.398;9.646;2022-08-01T07:04:40;100837.47;;;21.20;100.00
8160;BME280;27404;52.398;9.646;2022-08-01T07:07:05;100847.22;;;21.37;100.00
8160;BME280;27404;52.398;9.646;2022-08-01T07:09:31;100841.41;;;21.52;100.00
8160;BME280;27404;52.398;9.646;2022-08-01T07:11:57;100840.47;;;21.57;100.00
8160;BME280;27404;52.398;9.646;2022-08-01T07:14:22;100846.34;;;21.55;100.00
8160;BME280;27404;52.398;9.646;2022-08-01T07:16:48;100842.97;;;20.87;100.00
8160;BME280;27404;52.398;9.646;2022-08-01T07:19:14;100840.56;;;20.99;100.00
8160;BME280;27404;52.398;9.646;2022-08-01T07:21:40;100849.16;;;20.84;100.00
8160;BME280;27404;52.398;9.646;2022-08-01T07:24:06;100849.63;;;20.67;100.00
8160;BME280;27404;52.398;9.646;2022-08-01T07:26:32;100851.06;;;20.45;100.00
8160;BME280;27404;52.398;9.646;2022-08-01T07:28:57;100846.63;;;20.63;100.00
8160;BME280;27404;52.398;9.646;2022-08-01T07:31:23;100857.56;;;20.79;100.00
8160;BME280;27404;52.398;9.646;2022-08-01T07:33:49;100853.72;;;21.13;100.00
8160;BME280;27404;52.398;9.646;2022-08-01T07:36:18;100867.06;;;21.49;100.00
8160;BME280;27404;52.398;9.646;2022-08-01T07:38:44;100866.69;;;21.37;100.00
8160;BME280;27404;52.398;9.646;2022-08-01T07:41:10;100869.91;;;21.63;100.00
8160;BME280;27404;52.398;9.646;2022-08-01T07:43:35;100871.47;;;21.69;100.00
8160;BME280;27404;52.398;9.646;2022-08-01T07:46:04;100874.31;;;21.64;100.00
8160;BME280;27404;52.398;9.646;2022-08-01T07:48:30;100875.66;;;21.67;100.00
8160;BME280;27404;52.398;9.646;2022-08-01T07:50:56;100876.91;;;21.41;100.00
8160;BME280;27404;52.398;9.646;2022-08-01T07:53:22;100884.16;;;21.04;100.00
8160;BME280;27404;52.398;9.646;2022-08-01T07:55:48;100877.78;;;20.60;100.00
8160;BME280;27404;52.398;9.646;2022-08-01T07:58:14;100879.16;;;20.38;100.00
8160;BME280;27404;52.398;9.646;2022-08-01T08:00:39;100884.13;;;19.93;100.00
8160;BME280;27404;52.398;9.646;2022-08-01T08:03:05;100889.94;;;19.91;100.00
8160;BME280;27404;52.398;9.646;2022-08-01T08:05:31;100891.84;;;19.96;100.00
8160;BME280;27404;52.398;9.646;2022-08-01T08:08:01;100893.84;;;19.90;100.00
8160;BME280;27404;52.398;9.646;2022-08-01T08:10:26;100891.19;;;19.75;100.00
8160;BME280;27404;52.398;9.646;2022-08-01T08:12:52;100897.47;;;19.86;100.00
8160;BME280;27404;52.398;9.646;2022-08-01T08:15:17;100900.63;;;20.33;100.00
8160;BME280;27404;52.398;9.646;2022-08-01T08:17:43;100899.78;;;21.00;100.00
8160;BME280;27404;52.398;9.646;2022-08-01T08:20:08;100903.84;;;21.60;100.00
8160;BME280;27404;52.398;9.646;2022-08-01T08:22:34;100906.19;;;21.72;100.00
8160;BME280;27404;52.398;9.646;2022-08-01T08:25:00;100898.31;;;21.22;100.00
8160;BME280;27404;52.398;9.646;2022-08-01T08:27:26;100908.16;;;21.52;100.00
8160;BME280;27404;52.398;9.646;2022-08-01T08:29:51;100907.53;;;21.74;100.00
8160;BME280;27404;52.398;9.646;2022-08-01T08:32:17;100898.28;;;21.93;100.00
8160;BME280;27404;52.398;9.646;2022-08-01T08:34:42;100912.16;;;22.12;100.00
8160;BME280;27404;52.398;9.646;2022-08-01T08:37:08;100906.50;;;22.45;100.00
8160;BME280;27404;52.398;9.646;2022-08-01T08:39:34;100909.88;;;22.84;100.00
8160;BME280;27404;52.398;9.646;2022-08-01T08:42:00;100923.50;;;22.72;97.44
8160;BME280;27404;52.398;9.646;2022-08-01T08:44:27;100919.28;;;22.32;100.00
8160;BME280;27404;52.398;9.646;2022-08-01T08:46:54;100926.34;;;22.11;99.21
8160;BME280;27404;52.398;9.646;2022-08-01T08:49:24;100928.34;;;22.10;100.00
8160;BME280;27404;52.398;9.646;2022-08-01T08:51:52;100930.78;;;21.98;100.00
8160;BME280;27404;52.398;9.646;2022-08-01T08:54:20;100940.84;;;21.80;100.00
8160;BME280;27404;52.398;9.646;2022-08-01T08:56:47;100939.69;;;21.62;100.00
8160;BME280;27404;52.398;9.646;2022-08-01T08:59:13;100935.97;;;21.52;100.00
8160;BME280;27404;52.398;9.646;2022-08-01T09:01:39;100944.53;;;21.56;100.00
8160;BME280;27404;52.398;9.646;2022-08-01T09:04:05;100942.22;;;21.25;100.00
8160;BME280;27404;52.398;9.646;2022-08-01T09:06:32;100947.16;;;20.65;100.00
8160;BME280;27404;52.398;9.646;2022-08-01T09:08:58;100939.72;;;20.36;100.00
8160;BME280;27404;52.398;9.646;2022-08-01T09:11:24;100936.06;;;20.65;100.00
8160;BME280;27404;52.398;9.646;2022-08-01T09:14:07;100945.00;;;21.06;100.00
8160;BME280;27404;52.398;9.646;2022-08-01T09:16:34;100954.75;;;21.41;100.00
8160;BME280;27404;52.398;9.646;2022-08-01T09:19:18;100962.38;;;21.36;100.00
8160;BME280;27404;52.398;9.646;2022-08-01T09:22:01;100960.03;;;21.43;100.00
8160;BME280;27404;52.398;9.646;2022-08-01T09:24:29;100959.41;;;21.08;100.00
8160;BME280;27404;52.398;9.646;2022-08-01T09:26:55;100964.91;;;20.94;100.00
8160;BME280;27404;52.398;9.646;2022-08-01T09:29:28;100970.06;;;20.76;100.00
8160;BME280;27404;52.398;9.646;2022-08-01T09:31:55;100974.63;;;20.42;100.00
8160;BME280;27404;52.398;9.646;2022-08-01T09:34:30;100980.13;;;20.48;100.00
8160;BME280;27404;52.398;9.646;2022-08-01T09:37:01;100981.25;;;20.47;100.00
8160;BME280;27404;52.398;9.646;2022-08-01T09:39:34;100990.72;;;20.70;100.00
8160;BME280;27404;52.398;9.646;2022-08-01T09:42:19;100999.97;;;21.09;99.36
8160;BME280;27404;52.398;9.646;2022-08-01T09:44:45;100989.19;;;21.07;99.77
8160;BME280;27404;52.398;9.646;2022-08-01T09:47:12;100999.56;;;20.72;98.61
8160;BME280;27404;52.398;9.646;2022-08-01T09:49:39;100998.94;;;20.56;100.00
8160;BME280;27404;52.398;9.646;2022-08-01T09:52:16;100996.75;;;20.53;100.00
8160;BME280;27404;52.398;9.646;2022-08-01T09:54:51;101007.31;;;20.51;100.00
8160;BME280;27404;52.398;9.646;2022-08-01T09:57:18;100996.75;;;20.53;100.00
8160;BME280;27404;52.398;9.646;2022-08-01T09:59:49;101014.03;;;20.45;100.00
8160;BME280;27404;52.398;9.646;2022-08-01T10:02:36;101010.97;;;20.46;100.00
8160;BME280;27404;52.398;9.646;2022-08-01T10:05:04;101006.66;;;20.59;100.00
8160;BME280;27404;52.398;9.646;2022-08-01T10:07:30;101001.19;;;20.78;100.00
8160;BME280;27404;52.398;9.646;2022-08-01T10:10:09;101009.75;;;21.06;99.32
8160;BME280;27404;52.398;9.646;2022-08-01T10:12:35;101011.75;;;21.44;95.93
8160;BME280;27404;52.398;9.646;2022-08-01T10:15:01;101014.59;;;21.77;94.25
8160;BME280;27404;52.398;9.646;2022-08-01T10:17:26;101015.94;;;21.60;94.70
8160;BME280;27404;52.398;9.646;2022-08-01T10:19:52;101012.31;;;21.65;94.89
8160;BME280;27404;52.398;9.646;2022-08-01T10:22:22;101016.56;;;22.10;94.39
8160;BME280;27404;52.398;9.646;2022-08-01T10:24:50;101004.31;;;21.78;93.69
8160;BME280;27404;52.398;9.646;2022-08-01T10:27:20;101005.28;;;21.49;95.42
8160;BME280;27404;52.398;9.646;2022-08-01T10:29:50;101009.31;;;21.95;93.99
8160;BME280;27404;52.398;9.646;2022-08-01T10:32:17;100999.94;;;22.38;90.04
8160;BME280;27404;52.398;9.646;2022-08-01T10:34:43;101008.16;;;22.29;88.81
8160;BME280;27404;52.398;9.646;2022-08-01T10:37:10;101009.81;;;22.30;88.17
8160;BME280;27404;52.398;9.646;2022-08-01T10:39:36;101009.56;;;23.01;86.38
8160;BME280;27404;52.398;9.646;2022-08-01T10:42:02;101016.91;;;23.11;80.38
8160;BME280;27404;52.398;9.646;2022-08-01T10:44:29;101019.75;;;22.36;83.12
8160;BME280;27404;52.398;9.646;2022-08-01T10:47:09;101020.00;;;22.21;84.52
8160;BME280;27404;52.398;9.646;2022-08-01T10:49:41;101015.53;;;22.06;85.88
8160;BME280;27404;52.398;9.646;2022-08-01T10:52:14;101019.06;;;22.11;85.95
8160;BME280;27404;52.398;9.646;2022-08-01T10:54:39;101009.53;;;21.98;87.64
8160;BME280;27404;52.398;9.646;2022-08-01T10:57:06;101025.69;;;22.15;86.42
8160;BME280;27404;52.398;9.646;2022-08-01T10:59:32;101008.13;;;22.01;85.75
8160;BME280;27404;52.398;9.646;2022-08-01T11:02:00;101014.53;;;21.82;88.02
8160;BME280;27404;52.398;9.646;2022-08-01T11:07:17;101013.09;;;22.65;82.61
8160;BME280;27404;52.398;9.646;2022-08-01T11:09:45;101014.41;;;23.10;81.20
8160;BME280;27404;52.398;9.646;2022-08-01T11:12:16;101019.69;;;22.55;81.34
8160;BME280;27404;52.398;9.646;2022-08-01T11:20:16;101015.19;;;22.26;82.16
8160;BME280;27404;52.398;9.646;2022-08-01T11:25:22;101023.75;;;22.30;81.63
8160;BME280;27404;52.398;9.646;2022-08-01T11:27:48;101030.97;;;22.64;80.80
8160;BME280;27404;52.398;9.646;2022-08-01T11:32:50;101019.72;;;21.51;86.44
8160;BME280;27404;52.398;9.646;2022-08-01T11:35:16;101024.84;;;21.63;85.84
8160;BME280;27404;52.398;9.646;2022-08-01T11:37:42;101026.41;;;21.69;86.45
8160;BME280;27404;52.398;9.646;2022-08-01T11:40:27;101027.09;;;21.80;83.10
8160;BME280;27404;52.398;9.646;2022-08-01T11:45:47;101027.66;;;22.29;79.40
8160;BME280;27404;52.398;9.646;2022-08-01T11:48:24;101022.06;;;22.48;74.26
8160;BME280;27404;52.398;9.646;2022-08-01T11:50:51;101036.59;;;22.12;75.38
8160;BME280;27404;52.398;9.646;2022-08-01T11:53:18;101030.31;;;22.06;75.22
8160;BME280;27404;52.398;9.646;2022-08-01T11:55:52;101029.06;;;22.45;75.13
8160;BME280;27404;52.398;9.646;2022-08-01T11:58:23;101031.81;;;22.78;74.04
8160;BME280;27404;52.398;9.646;2022-08-01T12:00:56;101035.31;;;22.70;75.50
8160;BME280;27404;52.398;9.646;2022-08-01T12:03:30;101034.34;;;22.89;74.27
8160;BME280;27404;52.398;9.646;2022-08-01T12:05:57;101033.66;;;22.83;72.45
8160;BME280;27404;52.398;9.646;2022-08-01T12:08:33;101038.41;;;22.97;71.00
8160;BME280;27404;52.398;9.646;2022-08-01T12:11:00;101044.28;;;23.23;70.43
8160;BME280;27404;52.398;9.646;2022-08-01T12:13:26;101037.13;;;23.45;69.73
8160;BME280;27404;52.398;9.646;2022-08-01T12:15:52;101036.91;;;23.41;68.74
8160;BME280;27404;52.398;9.646;2022-08-01T12:18:18;101027.13;;;23.30;63.60
8160;BME280;27404;52.398;9.646;2022-08-01T12:20:45;101040.34;;;23.38;65.83
8160;BME280;27404;52.398;9.646;2022-08-01T12:23:13;101034.28;;;23.59;67.61
8160;BME280;27404;52.398;9.646;2022-08-01T12:25:39;101039.47;;;23.51;66.58
8160;BME280;27404;52.398;9.646;2022-08-01T12:28:06;101041.56;;;23.46;64.62
8160;BME280;27404;52.398;9.646;2022-08-01T12:30:33;101044.00;;;23.61;63.65
8160;BME280;27404;52.398;9.646;2022-08-01T12:33:06;101034.84;;;23.84;62.23
8160;BME280;27404;52.398;9.646;2022-08-01T12:35:33;101040.53;;;23.78;63.02
8160;BME280;27404;52.398;9.646;2022-08-01T12:38:13;101035.59;;;23.25;66.08
8160;BME280;27404;52.398;9.646;2022-08-01T12:40:45;101032.00;;;23.24;65.00
8160;BME280;27404;52.398;9.646;2022-08-01T12:43:19;101033.28;;;23.55;65.33
8160;BME280;27404;52.398;9.646;2022-08-01T12:45:48;101034.47;;;23.99;62.47
8160;BME280;27404;52.398;9.646;2022-08-01T12:48:16;101040.94;;;24.08;66.00
8160;BME280;27404;52.398;9.646;2022-08-01T12:50:48;101037.22;;;24.13;65.14
8160;BME280;27404;52.398;9.646;2022-08-01T12:53:14;101041.78;;;23.95;61.22
8160;BME280;27404;52.398;9.646;2022-08-01T12:55:45;101039.41;;;23.79;60.88
8160;BME280;27404;52.398;9.646;2022-08-01T12:58:13;101037.19;;;23.54;61.01
8160;BME280;27404;52.398;9.646;2022-08-01T13:00:40;101037.81;;;23.87;59.70
8160;BME280;27404;52.398;9.646;2022-08-01T13:03:11;101038.06;;;23.77;59.22
8160;BME280;27404;52.398;9.646;2022-08-01T13:05:54;101040.63;;;24.10;59.52
8160;BME280;27404;52.398;9.646;2022-08-01T13:08:22;101041.47;;;24.42;57.33
8160;BME280;27404;52.398;9.646;2022-08-01T13:10:49;101041.44;;;24.65;58.32
8160;BME280;27404;52.398;9.646;2022-08-01T13:13:17;101040.44;;;24.69;57.02
8160;BME280;27404;52.398;9.646;2022-08-01T13:15:43;101049.72;;;24.47;55.82
8160;BME280;27404;52.398;9.646;2022-08-01T13:18:29;101038.81;;;24.37;57.47
8160;BME280;27404;52.398;9.646;2022-08-01T13:21:15;101035.91;;;24.19;58.84